createdAt,value
2019-02-11T00:01:00.188Z,979.39
2019-02-11T00:02:07.412Z,979.43
2019-02-11T00:03:14.375Z,979.42
2019-02-11T00:04:20.934Z,979.43
2019-02-11T00:05:28.039Z,979.49
2019-02-11T00:06:35.159Z,979.49
2019-02-11T00:07:42.294Z,979.64
2019-02-11T00:08:49.360Z,979.59
2019-02-11T00:09:56.559Z,979.64
2019-02-11T00:11:03.210Z,979.62
2019-02-11T00:12:14.887Z,979.67
2019-02-11T00:13:17.206Z,979.74
2019-02-11T00:14:24.247Z,979.82
2019-02-11T00:15:31.379Z,979.76
2019-02-11T00:16:38.527Z,979.84
2019-02-11T00:17:45.691Z,979.84
2019-02-11T00:18:52.451Z,979.91
2019-02-11T00:19:59.106Z,979.92
2019-02-11T00:21:06.324Z,979.94
2019-02-11T00:22:12.857Z,979.97
2019-02-11T00:23:19.935Z,979.81
2019-02-11T00:24:27.061Z,979.99
2019-02-11T00:25:34.216Z,980.02
2019-02-11T00:26:41.339Z,979.97
2019-02-11T00:27:48.185Z,979.98
2019-02-11T00:28:55.312Z,980.01
2019-02-11T00:30:02.423Z,980.12
2019-02-11T00:31:09.446Z,980.08
2019-02-11T00:32:16.024Z,980.06
2019-02-11T00:33:23.204Z,980.13
2019-02-11T00:34:29.891Z,980.20
2019-02-11T00:35:37.112Z,980.18
2019-02-11T00:36:43.732Z,980.20
2019-02-11T00:37:50.880Z,980.27
2019-02-11T00:38:57.907Z,980.23
2019-02-11T00:40:04.820Z,980.24
2019-02-11T00:41:11.708Z,980.21
2019-02-11T00:42:18.335Z,980.26
2019-02-11T00:43:25.500Z,980.27
2019-02-11T00:44:32.599Z,980.24
2019-02-11T00:45:39.648Z,980.26
2019-02-11T00:46:46.772Z,980.28
2019-02-11T00:47:53.935Z,980.34
2019-02-11T00:49:00.546Z,980.41
2019-02-11T00:50:07.291Z,980.33
2019-02-11T00:51:13.973Z,980.48
2019-02-11T00:52:21.004Z,980.39
2019-02-11T00:53:28.073Z,980.40
2019-02-11T00:54:35.122Z,980.40
2019-02-11T00:55:42.265Z,980.48
2019-02-11T00:56:49.436Z,980.46
2019-02-11T00:57:56.507Z,980.50
2019-02-11T00:59:03.712Z,980.56
2019-02-11T01:00:10.435Z,980.54
2019-02-11T01:01:17.487Z,980.56
2019-02-11T01:02:24.122Z,980.52
2019-02-11T01:03:31.219Z,980.53
2019-02-11T01:04:38.389Z,980.61
2019-02-11T01:05:45.454Z,980.59
2019-02-11T01:06:52.629Z,980.61
2019-02-11T01:07:59.473Z,980.68
2019-02-11T01:09:06.196Z,980.64
2019-02-11T01:10:12.780Z,980.71
2019-02-11T01:11:19.924Z,980.64
2019-02-11T01:12:26.987Z,980.67
2019-02-11T01:13:34.140Z,980.71
2019-02-11T01:14:41.267Z,980.74
2019-02-11T01:15:48.420Z,980.76
2019-02-11T01:16:55.130Z,980.81
2019-02-11T01:18:01.631Z,980.78
2019-02-11T01:19:08.812Z,980.83
2019-02-11T01:20:15.456Z,980.80
2019-02-11T01:21:22.648Z,980.89
2019-02-11T01:22:29.200Z,980.88
2019-02-11T01:23:36.407Z,980.86
2019-02-11T01:24:43.052Z,980.89
2019-02-11T01:25:50.188Z,980.92
2019-02-11T01:26:57.372Z,980.92
2019-02-11T01:28:04.463Z,981.00
2019-02-11T01:29:11.680Z,981.02
2019-02-11T01:30:18.363Z,981.06
2019-02-11T01:31:24.960Z,981.13
2019-02-11T01:32:32.083Z,981.10
2019-02-11T01:33:39.237Z,981.22
2019-02-11T01:34:45.851Z,981.14
2019-02-11T01:35:53.003Z,981.20
2019-02-11T01:36:59.594Z,981.24
2019-02-11T01:38:06.856Z,981.21
2019-02-11T01:39:13.509Z,981.27
2019-02-11T01:40:20.658Z,981.42
2019-02-11T01:41:27.353Z,981.40
2019-02-11T01:42:34.012Z,981.45
2019-02-11T01:43:41.135Z,981.40
2019-02-11T01:44:48.290Z,981.41
2019-02-11T01:45:54.816Z,981.58
2019-02-11T01:47:02.005Z,981.56
2019-02-11T01:48:08.724Z,981.50
2019-02-11T01:49:15.283Z,981.53
2019-02-11T01:50:22.508Z,981.56
2019-02-11T01:51:29.228Z,981.59
2019-02-11T01:52:36.396Z,981.48
2019-02-11T01:53:42.922Z,981.58
2019-02-11T01:54:50.025Z,981.57
2019-02-11T01:55:57.093Z,981.55
2019-02-11T01:57:04.275Z,981.58
2019-02-11T01:58:10.839Z,981.68
2019-02-11T01:59:18.028Z,981.62
2019-02-11T02:00:24.772Z,981.65
2019-02-11T02:01:31.970Z,981.68
2019-02-11T02:02:38.613Z,981.74
2019-02-11T02:03:45.236Z,981.65
2019-02-11T02:04:52.455Z,981.70
2019-02-11T02:05:59.131Z,981.70
2019-02-11T02:07:06.305Z,981.71
2019-02-11T02:08:12.931Z,981.74
2019-02-11T02:09:20.061Z,981.73
2019-02-11T02:10:26.683Z,981.74
2019-02-11T02:11:33.887Z,981.78
2019-02-11T02:12:40.525Z,981.85
2019-02-11T02:13:47.641Z,981.80
2019-02-11T02:14:54.787Z,981.90
2019-02-11T02:16:01.913Z,981.84
2019-02-11T02:17:09.096Z,981.88
2019-02-11T02:18:15.764Z,981.92
2019-02-11T02:19:22.469Z,981.88
2019-02-11T02:20:29.007Z,981.95
2019-02-11T02:21:36.157Z,981.92
2019-02-11T02:22:42.777Z,981.99
2019-02-11T02:23:49.949Z,981.99
2019-02-11T02:24:57.015Z,982.08
2019-02-11T02:26:04.139Z,982.13
2019-02-11T02:27:11.194Z,982.13
2019-02-11T02:28:18.301Z,982.25
2019-02-11T02:29:25.499Z,982.19
2019-02-11T02:30:32.103Z,982.17
2019-02-11T02:31:39.239Z,982.17
2019-02-11T02:32:46.308Z,982.23
2019-02-11T02:33:53.517Z,982.19
2019-02-11T02:35:00.301Z,982.26
2019-02-11T02:36:07.093Z,982.33
2019-02-11T02:37:13.670Z,982.30
2019-02-11T02:38:20.803Z,982.36
2019-02-11T02:39:27.963Z,982.39
2019-02-11T02:40:35.091Z,982.48
2019-02-11T02:41:42.269Z,982.49
2019-02-11T02:42:49.441Z,982.45
2019-02-11T02:43:56.444Z,982.55
2019-02-11T02:45:03.617Z,982.52
2019-02-11T02:46:10.620Z,982.51
2019-02-11T02:47:17.723Z,982.50
2019-02-11T02:48:24.803Z,982.59
2019-02-11T02:49:31.937Z,982.63
2019-02-11T02:50:39.280Z,982.65
2019-02-11T02:51:45.965Z,982.59
2019-02-11T02:52:52.628Z,982.70
2019-02-11T02:53:59.741Z,982.62
2019-02-11T02:55:06.978Z,982.68
2019-02-11T02:56:13.632Z,982.68
2019-02-11T02:57:20.759Z,982.68
2019-02-11T02:58:27.876Z,982.78
2019-02-11T02:59:35.012Z,982.80
2019-02-11T03:00:42.105Z,982.80
2019-02-11T03:01:49.220Z,982.84
2019-02-11T03:02:56.324Z,982.86
2019-02-11T03:04:03.435Z,982.84
2019-02-11T03:05:10.528Z,982.80
2019-02-11T03:06:17.652Z,982.91
2019-02-11T03:07:24.329Z,982.84
2019-02-11T03:08:31.435Z,982.87
2019-02-11T03:09:38.652Z,982.90
2019-02-11T03:10:45.263Z,982.94
2019-02-11T03:11:52.432Z,982.92
2019-02-11T03:12:59.559Z,982.96
2019-02-11T03:14:06.742Z,982.86
2019-02-11T03:15:13.287Z,982.93
2019-02-11T03:16:20.467Z,982.95
2019-02-11T03:17:27.567Z,982.98
2019-02-11T03:18:34.671Z,982.98
2019-02-11T03:19:41.806Z,982.96
2019-02-11T03:20:48.938Z,982.97
2019-02-11T03:21:55.520Z,982.97
2019-02-11T03:23:02.613Z,982.96
2019-02-11T03:24:09.752Z,983.03
2019-02-11T03:25:16.957Z,983.08
2019-02-11T03:26:23.675Z,983.03
2019-02-11T03:27:30.368Z,983.00
2019-02-11T03:28:37.620Z,983.03
2019-02-11T03:29:44.300Z,983.11
2019-02-11T03:30:51.442Z,983.16
2019-02-11T03:31:59.995Z,983.14
2019-02-11T03:33:05.742Z,983.18
2019-02-11T03:34:12.347Z,983.20
2019-02-11T03:35:19.490Z,983.25
2019-02-11T03:36:26.620Z,983.35
2019-02-11T03:37:33.262Z,983.30
2019-02-11T03:38:40.356Z,983.40
2019-02-11T03:39:47.513Z,983.32
2019-02-11T03:40:54.625Z,983.32
2019-02-11T03:42:01.713Z,983.37
2019-02-11T03:43:08.997Z,983.39
2019-02-11T03:44:15.697Z,983.41
2019-02-11T03:45:22.874Z,983.51
2019-02-11T03:46:29.432Z,983.56
2019-02-11T03:47:36.540Z,983.53
2019-02-11T03:48:43.685Z,983.46
2019-02-11T03:49:50.311Z,983.49
2019-02-11T03:50:57.499Z,983.58
2019-02-11T03:52:04.030Z,983.50
2019-02-11T03:53:11.148Z,983.53
2019-02-11T03:54:18.271Z,983.57
2019-02-11T03:55:25.405Z,983.60
2019-02-11T03:56:32.520Z,983.66
2019-02-11T03:57:39.231Z,983.59
2019-02-11T03:58:45.832Z,983.63
2019-02-11T03:59:53.058Z,983.67
2019-02-11T04:00:59.644Z,983.63
2019-02-11T04:02:06.875Z,983.65
2019-02-11T04:03:13.481Z,983.76
2019-02-11T04:04:20.624Z,983.73
2019-02-11T04:05:27.263Z,983.80
2019-02-11T04:06:34.404Z,983.84
2019-02-11T04:07:41.544Z,983.86
2019-02-11T04:08:48.211Z,983.88
2019-02-11T04:09:55.346Z,983.91
2019-02-11T04:11:02.047Z,983.94
2019-02-11T04:12:08.751Z,984.02
2019-02-11T04:13:15.336Z,984.04
2019-02-11T04:14:24.962Z,984.00
2019-02-11T04:15:29.287Z,983.93
2019-02-11T04:16:35.949Z,984.05
2019-02-11T04:17:43.038Z,984.08
2019-02-11T04:18:50.222Z,984.10
2019-02-11T04:19:56.809Z,984.11
2019-02-11T04:21:04.147Z,984.14
2019-02-11T04:22:11.000Z,984.18
2019-02-11T04:23:18.200Z,984.25
2019-02-11T04:24:24.851Z,984.29
2019-02-11T04:25:31.929Z,984.22
2019-02-11T04:26:39.150Z,984.24
2019-02-11T04:27:45.999Z,984.25
2019-02-11T04:28:52.684Z,984.24
2019-02-11T04:29:59.773Z,984.33
2019-02-11T04:31:07.018Z,984.31
2019-02-11T04:32:13.556Z,984.41
2019-02-11T04:33:20.612Z,984.36
2019-02-11T04:34:27.716Z,984.40
2019-02-11T04:35:34.920Z,984.50
2019-02-11T04:36:41.599Z,984.51
2019-02-11T04:37:48.323Z,984.51
2019-02-11T04:38:55.546Z,984.48
2019-02-11T04:40:02.269Z,984.45
2019-02-11T04:41:09.308Z,984.56
2019-02-11T04:42:16.071Z,984.58
2019-02-11T04:43:22.731Z,984.57
2019-02-11T04:44:34.071Z,984.59
2019-02-11T04:45:36.646Z,984.63
2019-02-11T04:46:43.232Z,984.62
2019-02-11T04:47:50.393Z,984.73
2019-02-11T04:48:57.531Z,984.73
2019-02-11T04:50:04.184Z,984.71
2019-02-11T04:51:10.940Z,984.81
2019-02-11T04:52:18.144Z,984.81
2019-02-11T04:53:24.908Z,984.82
2019-02-11T04:54:31.736Z,984.86
2019-02-11T04:55:38.933Z,984.94
2019-02-11T04:56:45.598Z,984.97
2019-02-11T04:57:52.299Z,984.97
2019-02-11T04:58:58.936Z,984.91
2019-02-11T05:00:06.094Z,984.87
2019-02-11T05:01:12.988Z,984.90
2019-02-11T05:02:20.179Z,984.92
2019-02-11T05:03:26.820Z,984.94
2019-02-11T05:04:33.948Z,985.02
2019-02-11T05:05:41.097Z,985.02
2019-02-11T05:06:48.251Z,985.00
2019-02-11T05:07:55.369Z,985.04
2019-02-11T05:09:02.545Z,985.07
2019-02-11T05:10:09.584Z,985.09
2019-02-11T05:11:16.773Z,985.11
2019-02-11T05:12:23.972Z,985.12
2019-02-11T05:13:30.591Z,985.18
2019-02-11T05:14:43.901Z,985.10
2019-02-11T05:15:44.523Z,985.16
2019-02-11T05:16:51.223Z,985.09
2019-02-11T05:17:58.399Z,985.19
2019-02-11T05:19:05.005Z,985.27
2019-02-11T05:20:12.120Z,985.23
2019-02-11T05:21:18.812Z,985.24
2019-02-11T05:22:25.999Z,985.22
2019-02-11T05:23:32.658Z,985.29
2019-02-11T05:24:39.768Z,985.37
2019-02-11T05:25:46.849Z,985.33
2019-02-11T05:26:54.001Z,985.35
2019-02-11T05:28:00.649Z,985.36
2019-02-11T05:29:07.836Z,985.47
2019-02-11T05:30:14.512Z,985.52
2019-02-11T05:31:21.950Z,985.51
2019-02-11T05:32:28.644Z,985.48
2019-02-11T05:33:35.154Z,985.46
2019-02-11T05:34:42.237Z,985.57
2019-02-11T05:35:49.348Z,985.60
2019-02-11T05:36:56.516Z,985.64
2019-02-11T05:38:03.258Z,985.53
2019-02-11T05:39:09.947Z,985.59
2019-02-11T05:40:17.106Z,985.62
2019-02-11T05:41:23.801Z,985.70
2019-02-11T05:42:30.888Z,985.67
2019-02-11T05:43:38.341Z,985.61
2019-02-11T05:44:53.669Z,985.64
2019-02-11T05:45:52.100Z,985.65
2019-02-11T05:46:58.712Z,985.63
2019-02-11T05:48:05.909Z,985.62
2019-02-11T05:49:12.527Z,985.69
2019-02-11T05:50:19.591Z,985.61
2019-02-11T05:51:26.656Z,985.69
2019-02-11T05:52:33.684Z,985.71
2019-02-11T05:53:41.096Z,985.75
2019-02-11T05:54:47.625Z,985.83
2019-02-11T05:55:54.708Z,985.84
2019-02-11T05:57:01.788Z,985.83
2019-02-11T05:58:08.985Z,985.85
2019-02-11T05:59:15.633Z,985.88
2019-02-11T06:00:22.806Z,985.97
2019-02-11T06:01:29.915Z,985.95
2019-02-11T06:02:37.114Z,986.02
2019-02-11T06:03:43.764Z,985.98
2019-02-11T06:04:51.209Z,986.09
2019-02-11T06:05:57.820Z,986.06
2019-02-11T06:07:04.952Z,986.10
2019-02-11T06:08:12.105Z,986.08
2019-02-11T06:09:18.740Z,986.16
2019-02-11T06:10:25.856Z,986.13
2019-02-11T06:11:33.005Z,986.17
2019-02-11T06:12:40.156Z,986.16
2019-02-11T06:13:47.140Z,986.15
2019-02-11T06:15:02.641Z,986.20
2019-02-11T06:16:01.420Z,986.20
2019-02-11T06:17:08.611Z,986.29
2019-02-11T06:18:15.230Z,986.30
2019-02-11T06:19:22.388Z,986.31
2019-02-11T06:20:28.992Z,986.33
2019-02-11T06:21:35.645Z,986.35
2019-02-11T06:22:42.737Z,986.41
2019-02-11T06:23:49.773Z,986.41
2019-02-11T06:24:56.891Z,986.45
2019-02-11T06:26:04.091Z,986.41
2019-02-11T06:27:10.663Z,986.37
2019-02-11T06:28:18.029Z,986.45
2019-02-11T06:29:24.801Z,986.61
2019-02-11T06:30:31.388Z,986.49
2019-02-11T06:31:38.555Z,986.57
2019-02-11T06:32:45.719Z,986.54
2019-02-11T06:33:52.417Z,986.44
2019-02-11T06:34:59.060Z,986.58
2019-02-11T06:36:12.233Z,986.58
2019-02-11T06:37:13.323Z,986.53
2019-02-11T06:38:20.455Z,986.58
2019-02-11T06:39:27.508Z,986.58
2019-02-11T06:40:34.644Z,986.61
2019-02-11T06:41:41.756Z,986.66
2019-02-11T06:42:48.875Z,986.65
2019-02-11T06:43:56.027Z,986.72
2019-02-11T06:45:03.105Z,986.69
2019-02-11T06:46:09.883Z,986.71
2019-02-11T06:47:16.945Z,986.71
2019-02-11T06:48:24.163Z,986.75
2019-02-11T06:49:31.241Z,986.83
2019-02-11T06:50:38.376Z,986.75
2019-02-11T06:51:45.399Z,986.81
2019-02-11T06:52:52.545Z,986.84
2019-02-11T06:53:59.671Z,986.77
2019-02-11T06:55:06.900Z,986.82
2019-02-11T06:56:13.817Z,986.79
2019-02-11T06:57:20.963Z,986.83
2019-02-11T06:58:28.074Z,986.88
2019-02-11T06:59:34.968Z,986.91
2019-02-11T07:00:42.064Z,986.94
2019-02-11T07:01:49.219Z,986.91
2019-02-11T07:02:55.839Z,987.02
2019-02-11T07:04:03.019Z,987.05
2019-02-11T07:05:09.579Z,987.05
2019-02-11T07:06:16.672Z,987.13
2019-02-11T07:07:23.831Z,987.13
2019-02-11T07:08:30.920Z,987.14
2019-02-11T07:09:38.080Z,987.21
2019-02-11T07:10:45.168Z,987.23
2019-02-11T07:11:52.338Z,987.27
2019-02-11T07:12:59.420Z,987.35
2019-02-11T07:14:06.631Z,987.29
2019-02-11T07:15:21.202Z,987.28
2019-02-11T07:16:20.361Z,987.24
2019-02-11T07:17:27.500Z,987.39
2019-02-11T07:18:37.050Z,987.39
2019-02-11T07:19:41.712Z,987.44
2019-02-11T07:20:48.795Z,987.44
2019-02-11T07:21:55.895Z,987.46
2019-02-11T07:23:03.046Z,987.40
2019-02-11T07:24:09.700Z,987.42
2019-02-11T07:25:16.921Z,987.47
2019-02-11T07:26:23.576Z,987.60
2019-02-11T07:27:30.712Z,987.57
2019-02-11T07:28:37.456Z,987.59
2019-02-11T07:29:44.128Z,987.63
2019-02-11T07:30:50.755Z,987.52
2019-02-11T07:31:57.835Z,987.64
2019-02-11T07:33:05.016Z,987.65
2019-02-11T07:34:11.590Z,987.69
2019-02-11T07:35:18.717Z,987.68
2019-02-11T07:36:25.868Z,987.69
2019-02-11T07:37:32.958Z,987.68
2019-02-11T07:38:40.045Z,987.67
2019-02-11T07:39:47.231Z,987.71
2019-02-11T07:40:53.887Z,987.79
2019-02-11T07:42:00.961Z,987.80
2019-02-11T07:43:07.767Z,987.78
2019-02-11T07:44:14.678Z,987.78
2019-02-11T07:45:29.697Z,987.74
2019-02-11T07:46:28.616Z,987.82
2019-02-11T07:47:35.312Z,987.86
2019-02-11T07:48:42.432Z,987.85
2019-02-11T07:49:49.560Z,987.88
2019-02-11T07:50:56.704Z,987.90
2019-02-11T07:52:03.667Z,987.96
2019-02-11T07:53:10.304Z,987.93
2019-02-11T07:54:17.456Z,987.96
2019-02-11T07:55:24.467Z,987.95
2019-02-11T07:56:31.624Z,987.99
2019-02-11T07:57:38.784Z,988.03
2019-02-11T07:58:45.376Z,987.98
2019-02-11T07:59:52.531Z,988.06
2019-02-11T08:00:59.619Z,988.02
2019-02-11T08:02:06.884Z,988.07
2019-02-11T08:03:13.508Z,988.12
2019-02-11T08:04:20.649Z,988.14
2019-02-11T08:05:27.813Z,988.19
2019-02-11T08:06:34.580Z,988.10
2019-02-11T08:07:41.215Z,988.20
2019-02-11T08:08:48.383Z,988.27
2019-02-11T08:09:55.160Z,988.22
2019-02-11T08:11:01.801Z,988.18
2019-02-11T08:12:08.480Z,988.24
2019-02-11T08:13:15.603Z,988.21
2019-02-11T08:14:22.795Z,988.19
2019-02-11T08:15:29.423Z,988.20
2019-02-11T08:16:36.111Z,988.24
2019-02-11T08:17:43.237Z,988.18
2019-02-11T08:18:50.277Z,988.30
2019-02-11T08:19:57.357Z,988.31
2019-02-11T08:21:04.806Z,988.32
2019-02-11T08:22:11.415Z,988.29
2019-02-11T08:23:18.586Z,988.30
2019-02-11T08:24:25.761Z,988.40
2019-02-11T08:25:32.419Z,988.38
2019-02-11T08:26:39.508Z,988.43
2019-02-11T08:27:46.616Z,988.45
2019-02-11T08:28:53.812Z,988.48
2019-02-11T08:30:00.455Z,988.50
2019-02-11T08:31:07.292Z,988.52
2019-02-11T08:32:13.960Z,988.51
2019-02-11T08:33:21.128Z,988.48
2019-02-11T08:34:27.748Z,988.49
2019-02-11T08:35:34.851Z,988.48
2019-02-11T08:36:42.025Z,988.53
2019-02-11T08:37:48.607Z,988.49
2019-02-11T08:38:55.688Z,988.54
2019-02-11T08:40:02.960Z,988.57
2019-02-11T08:41:09.715Z,988.64
2019-02-11T08:42:16.880Z,988.67
2019-02-11T08:43:24.195Z,988.62
2019-02-11T08:44:30.788Z,988.66
2019-02-11T08:45:37.999Z,988.62
2019-02-11T08:46:44.572Z,988.68
2019-02-11T08:47:51.742Z,988.68
2019-02-11T08:48:58.371Z,988.68
2019-02-11T08:50:05.536Z,988.69
2019-02-11T08:51:12.330Z,988.72
2019-02-11T08:52:19.484Z,988.83
2019-02-11T08:53:26.661Z,988.81
2019-02-11T08:54:33.836Z,988.79
2019-02-11T08:55:40.991Z,988.84
2019-02-11T08:56:48.101Z,988.90
2019-02-11T08:57:55.205Z,988.92
2019-02-11T08:59:02.348Z,988.91
2019-02-11T09:00:09.047Z,988.95
2019-02-11T09:01:15.811Z,988.95
2019-02-11T09:02:22.983Z,989.04
2019-02-11T09:03:29.667Z,988.95
2019-02-11T09:04:36.886Z,989.13
2019-02-11T09:05:43.499Z,989.03
2019-02-11T09:06:50.579Z,989.10
2019-02-11T09:07:57.582Z,989.08
2019-02-11T09:09:04.791Z,989.17
2019-02-11T09:10:11.477Z,989.18
2019-02-11T09:11:18.252Z,989.22
2019-02-11T09:12:24.953Z,989.22
2019-02-11T09:13:31.692Z,989.25
2019-02-11T09:14:38.356Z,989.32
2019-02-11T09:15:45.468Z,989.26
2019-02-11T09:16:52.671Z,989.35
2019-02-11T09:17:59.346Z,989.30
2019-02-11T09:19:06.556Z,989.36
2019-02-11T09:20:13.149Z,989.39
2019-02-11T09:21:20.324Z,989.38
2019-02-11T09:22:27.485Z,989.35
2019-02-11T09:23:34.654Z,989.36
2019-02-11T09:24:41.313Z,989.46
2019-02-11T09:25:48.456Z,989.47
2019-02-11T09:26:55.566Z,989.51
2019-02-11T09:28:02.635Z,989.51
2019-02-11T09:29:09.795Z,989.60
2019-02-11T09:30:16.946Z,989.56
2019-02-11T09:31:24.329Z,989.58
2019-02-11T09:32:30.990Z,989.66
2019-02-11T09:33:38.179Z,989.61
2019-02-11T09:34:45.247Z,989.56
2019-02-11T09:35:52.426Z,989.63
2019-02-11T09:36:59.268Z,989.66
2019-02-11T09:38:06.035Z,989.69
2019-02-11T09:39:13.163Z,989.66
2019-02-11T09:40:20.280Z,989.69
2019-02-11T09:41:27.488Z,989.73
2019-02-11T09:42:34.047Z,989.76
2019-02-11T09:43:41.164Z,989.83
2019-02-11T09:44:48.321Z,989.90
2019-02-11T09:45:54.895Z,989.87
2019-02-11T09:47:02.122Z,989.89
2019-02-11T09:48:09.113Z,989.94
2019-02-11T09:49:15.917Z,990.01
2019-02-11T09:50:22.635Z,990.04
2019-02-11T09:51:29.433Z,990.12
2019-02-11T09:52:36.559Z,990.07
2019-02-11T09:53:43.228Z,990.09
2019-02-11T09:54:50.307Z,990.14
2019-02-11T09:55:57.492Z,990.18
2019-02-11T09:57:04.588Z,990.32
2019-02-11T09:58:11.726Z,990.30
2019-02-11T09:59:18.875Z,990.29
2019-02-11T10:00:25.971Z,990.36
2019-02-11T10:01:32.747Z,990.44
2019-02-11T10:02:39.380Z,990.43
2019-02-11T10:03:46.530Z,990.50
2019-02-11T10:04:53.668Z,990.50
2019-02-11T10:06:05.136Z,990.53
2019-02-11T10:07:07.339Z,990.49
2019-02-11T10:08:14.007Z,990.50
2019-02-11T10:09:21.071Z,990.51
2019-02-11T10:10:28.204Z,990.54
2019-02-11T10:11:35.299Z,990.55
2019-02-11T10:12:42.416Z,990.51
2019-02-11T10:13:49.491Z,990.47
2019-02-11T10:14:56.696Z,990.59
2019-02-11T10:16:03.287Z,990.65
2019-02-11T10:17:10.376Z,990.70
2019-02-11T10:18:17.496Z,990.70
2019-02-11T10:19:24.175Z,990.75
2019-02-11T10:20:31.287Z,990.75
2019-02-11T10:21:38.276Z,990.80
2019-02-11T10:22:44.928Z,990.83
2019-02-11T10:23:51.665Z,990.84
2019-02-11T10:24:58.225Z,990.91
2019-02-11T10:26:05.409Z,990.88
2019-02-11T10:27:11.977Z,990.99
2019-02-11T10:28:19.071Z,990.99
2019-02-11T10:29:26.119Z,990.98
2019-02-11T10:30:33.245Z,990.95
2019-02-11T10:31:39.921Z,990.97
2019-02-11T10:32:47.051Z,991.04
2019-02-11T10:33:54.211Z,991.13
2019-02-11T10:35:00.893Z,991.05
2019-02-11T10:36:07.868Z,991.07
2019-02-11T10:37:14.635Z,991.06
2019-02-11T10:38:21.309Z,991.10
2019-02-11T10:39:27.969Z,991.06
2019-02-11T10:40:34.962Z,991.03
2019-02-11T10:41:42.056Z,991.01
2019-02-11T10:42:49.856Z,991.00
2019-02-11T10:43:56.763Z,991.06
2019-02-11T10:45:03.506Z,991.08
2019-02-11T10:46:10.347Z,990.98
2019-02-11T10:47:17.713Z,990.98
2019-02-11T10:48:25.427Z,991.01
2019-02-11T10:49:30.439Z,991.02
2019-02-11T10:50:37.609Z,990.98
2019-02-11T10:51:44.716Z,991.02
2019-02-11T10:52:51.948Z,991.02
2019-02-11T10:53:58.638Z,991.00
2019-02-11T10:55:05.773Z,991.07
2019-02-11T10:56:12.615Z,991.06
2019-02-11T10:57:19.718Z,991.14
2019-02-11T10:58:26.884Z,991.11
2019-02-11T10:59:33.604Z,991.04
2019-02-11T11:00:40.908Z,991.06
2019-02-11T11:01:47.791Z,991.13
2019-02-11T11:02:54.453Z,991.08
2019-02-11T11:04:01.566Z,991.15
2019-02-11T11:05:08.811Z,991.17
2019-02-11T11:06:15.772Z,991.16
2019-02-11T11:07:22.923Z,991.20
2019-02-11T11:08:30.051Z,991.21
2019-02-11T11:09:37.256Z,991.27
2019-02-11T11:10:43.887Z,991.34
2019-02-11T11:11:50.632Z,991.37
2019-02-11T11:12:57.744Z,991.44
2019-02-11T11:14:04.889Z,991.39
2019-02-11T11:15:11.922Z,991.45
2019-02-11T11:16:19.028Z,991.44
2019-02-11T11:17:26.132Z,991.49
2019-02-11T11:18:33.275Z,991.51
2019-02-11T11:19:40.404Z,991.59
2019-02-11T11:20:47.563Z,991.59
2019-02-11T11:21:54.595Z,991.59
2019-02-11T11:23:01.773Z,991.74
2019-02-11T11:24:08.453Z,991.72
2019-02-11T11:25:15.148Z,991.71
2019-02-11T11:26:21.969Z,991.76
2019-02-11T11:27:28.584Z,991.82
2019-02-11T11:28:35.772Z,991.77
2019-02-11T11:29:42.860Z,991.72
2019-02-11T11:30:49.983Z,991.76
2019-02-11T11:31:57.054Z,991.76
2019-02-11T11:33:04.182Z,991.80
2019-02-11T11:34:10.983Z,991.82
2019-02-11T11:35:17.712Z,991.79
2019-02-11T11:36:24.444Z,991.85
2019-02-11T11:37:31.567Z,991.79
2019-02-11T11:38:38.812Z,991.86
2019-02-11T11:39:45.536Z,991.87
2019-02-11T11:40:52.224Z,991.86
2019-02-11T11:41:58.849Z,991.90
2019-02-11T11:43:06.026Z,991.89
2019-02-11T11:44:13.132Z,991.88
2019-02-11T11:45:22.244Z,991.80
2019-02-11T11:46:27.372Z,991.81
2019-02-11T11:47:34.632Z,991.89
2019-02-11T11:48:41.116Z,991.93
2019-02-11T11:49:48.217Z,991.92
2019-02-11T11:50:55.324Z,991.94
2019-02-11T11:52:02.508Z,991.96
2019-02-11T11:53:09.204Z,991.96
2019-02-11T11:54:16.383Z,992.00
2019-02-11T11:55:23.043Z,991.99
2019-02-11T11:56:29.773Z,992.04
2019-02-11T11:57:36.980Z,992.07
2019-02-11T11:58:43.659Z,992.00
2019-02-11T11:59:50.797Z,992.12
2019-02-11T12:00:57.843Z,992.11
2019-02-11T12:02:04.990Z,992.18
2019-02-11T12:03:12.137Z,992.19
2019-02-11T12:04:18.924Z,992.17
2019-02-11T12:05:25.562Z,992.22
2019-02-11T12:06:32.227Z,992.22
2019-02-11T12:07:39.460Z,992.27
2019-02-11T12:08:46.218Z,992.21
2019-02-11T12:09:52.940Z,992.28
2019-02-11T12:10:59.537Z,992.36
2019-02-11T12:12:06.787Z,992.34
2019-02-11T12:13:22.688Z,992.36
2019-02-11T12:14:20.110Z,992.39
2019-02-11T12:15:27.393Z,992.41
2019-02-11T12:16:34.323Z,992.45
2019-02-11T12:17:41.084Z,992.40
2019-02-11T12:18:47.842Z,992.35
2019-02-11T12:19:54.928Z,992.38
2019-02-11T12:21:02.090Z,992.35
2019-02-11T12:22:12.663Z,992.47
2019-02-11T12:23:15.521Z,992.48
2019-02-11T12:24:22.275Z,992.48
2019-02-11T12:25:28.912Z,992.45
2019-02-11T12:26:35.998Z,992.52
2019-02-11T12:27:43.127Z,992.64
2019-02-11T12:28:50.280Z,992.60
2019-02-11T12:29:57.395Z,992.65
2019-02-11T12:31:04.579Z,992.61
2019-02-11T12:32:11.162Z,992.74
2019-02-11T12:33:18.294Z,992.69
2019-02-11T12:34:25.496Z,992.75
2019-02-11T12:35:32.172Z,992.71
2019-02-11T12:36:39.273Z,992.70
2019-02-11T12:37:46.383Z,992.74
2019-02-11T12:38:53.231Z,992.88
2019-02-11T12:39:59.860Z,992.84
2019-02-11T12:41:06.638Z,992.88
2019-02-11T12:42:13.774Z,992.77
2019-02-11T12:43:20.943Z,992.79
2019-02-11T12:44:28.044Z,992.89
2019-02-11T12:45:35.183Z,992.85
2019-02-11T12:46:42.319Z,992.81
2019-02-11T12:47:50.233Z,992.78
2019-02-11T12:48:56.321Z,992.78
2019-02-11T12:50:03.562Z,992.79
2019-02-11T12:51:10.384Z,992.82
2019-02-11T12:52:17.009Z,992.88
2019-02-11T12:53:24.162Z,992.83
2019-02-11T12:54:31.303Z,992.87
2019-02-11T12:55:38.113Z,992.89
2019-02-11T12:56:44.753Z,992.88
2019-02-11T12:57:51.981Z,992.97
2019-02-11T12:58:58.644Z,992.99
2019-02-11T13:00:05.797Z,993.01
2019-02-11T13:01:12.748Z,993.12
2019-02-11T13:02:19.879Z,993.09
2019-02-11T13:03:26.972Z,993.16
2019-02-11T13:04:34.307Z,993.16
2019-02-11T13:05:45.723Z,993.14
2019-02-11T13:06:47.575Z,993.18
2019-02-11T13:07:54.761Z,993.18
2019-02-11T13:09:01.908Z,993.24
2019-02-11T13:10:09.372Z,993.26
2019-02-11T13:11:16.085Z,993.37
2019-02-11T13:12:22.899Z,993.36
2019-02-11T13:13:29.584Z,993.39
2019-02-11T13:14:36.538Z,993.31
2019-02-11T13:15:59.979Z,993.33
2019-02-11T13:16:50.379Z,993.47
2019-02-11T13:17:57.611Z,993.36
2019-02-11T13:19:03.969Z,993.40
2019-02-11T13:20:11.814Z,993.44
2019-02-11T13:21:17.494Z,993.43
2019-02-11T13:22:24.437Z,993.37
2019-02-11T13:23:31.068Z,993.42
2019-02-11T13:24:38.239Z,993.36
2019-02-11T13:25:44.910Z,993.45
2019-02-11T13:26:51.637Z,993.43
2019-02-11T13:27:58.284Z,993.39
2019-02-11T13:29:05.415Z,993.46
2019-02-11T13:30:12.560Z,993.50
2019-02-11T13:31:19.497Z,993.50
2019-02-11T13:32:26.126Z,993.47
2019-02-11T13:33:33.203Z,993.43
2019-02-11T13:34:40.350Z,993.52
2019-02-11T13:35:47.474Z,993.55
2019-02-11T13:36:54.631Z,993.57
2019-02-11T13:38:01.729Z,993.57
2019-02-11T13:39:08.908Z,993.65
2019-02-11T13:40:15.522Z,993.61
2019-02-11T13:41:22.757Z,993.67
2019-02-11T13:42:29.366Z,993.68
2019-02-11T13:43:36.571Z,993.61
2019-02-11T13:44:43.428Z,993.69
2019-02-11T13:45:50.205Z,993.75
2019-02-11T13:46:56.936Z,993.70
2019-02-11T13:48:04.035Z,993.79
2019-02-11T13:49:10.799Z,993.68
2019-02-11T13:50:17.575Z,993.72
2019-02-11T13:51:24.623Z,993.78
2019-02-11T13:52:31.305Z,993.81
2019-02-11T13:53:38.031Z,993.83
2019-02-11T13:54:44.605Z,993.80
2019-02-11T13:55:51.840Z,993.86